• Join FlightAware (Why Join?)
  • Login
  • US Flag 
02:48PM EST


 

Airport Tracker/Info


-or-


 

Live Flight TrackerFlight Track Log ✈ AWE1913 ✈ 17-Apr-2013 ✈ KPHL - MYNN / NAS

Flight Track Log - Related Links

Times and Time Zones

All times are in EDT time to prevent confusion due to time zone crossing. See the AWE1913 flight status page for this flight to view local times or setup timezone preferences in your user account.

Time Position Orientation Groundspeed Altitude Reporting Facility
EDT Latitude Longitude Course Direction KTS MPH feet Rate Location/Type
10:18AM 39.8756 -75.2139 180° South 171 197 1,100  Level FAA TRACON SMA TRACON (SMA)
10:19AM 39.8667 -75.1917 118° Southeast 185 213 1,800 1,620 Climbing FAA TRACON SMA TRACON (SMA)
10:19AM 39.8569 -75.1700 120° Southeast 206 237 2,200 900 Climbing FAA TRACON SMA TRACON (SMA)
10:19AM 39.8469 -75.1478 120° Southeast 244 281 2,400 900 Climbing FAA TRACON SMA TRACON (SMA)
10:20AM 39.8356 -75.1203 118° Southeast 272 313 2,800 2,220 Climbing FAA TRACON SMA TRACON (SMA)
10:20AM 39.8217 -75.0869 118° Southeast 282 325 3,900 3,300 Climbing FAA TRACON SMA TRACON (SMA)
10:20AM 39.8106 -75.0592 117° Southeast 282 325 5,000 2,700 Climbing FAA TRACON SMA TRACON (SMA)
10:21AM 39.4793 -75.3236 194° South  Level FlightAware Approximate
10:21AM 39.7969 -75.0325 124° Southeast 283 326 5,700  Level FAA TRACON SMA TRACON (SMA)
10:21AM 39.7686 -75.0183 159° South 294 338 6,800 2,700 Climbing FAA TRACON SMA TRACON (SMA)
10:21AM 39.7439 -75.0258 193° South 295 339 7,500 2,100 Climbing FAA TRACON SMA TRACON (SMA)
10:22AM 39.3467 -75.3430 185° South  Level FlightAware Approximate
10:22AM 39.7278 -75.0478 226° Southwest 276 318 8,200  Level FAA TRACON SMA TRACON (SMA)
10:22AM 39.7156 -75.0836 246° West 280 322 9,200 3,000 Climbing FAA TRACON SMA TRACON (SMA)
10:22AM 39.7058 -75.1119 246° West 280 322 10,200 2,400 Climbing FAA TRACON SMA TRACON (SMA)
10:23AM 39.2148 -75.3667 180° South  Level FlightAware Approximate
10:23AM 39.6958 -75.1392 244° Southwest 280 322 10,800  Level FAA TRACON SMA TRACON (SMA)
10:23AM 39.6817 -75.1781 245° Southwest 329 379 11,200 1,200 Climbing FAA TRACON SMA TRACON (SMA)
10:23AM 39.6694 -75.2117 245° Southwest 325 374 11,600 1,020 Climbing FAA TRACON SMA TRACON (SMA)
10:24AM 39.6564 -75.2469 244° Southwest 351 404 11,900 1,920 Climbing FAA TRACON SMA TRACON (SMA)
10:24AM 39.6375 -75.2783 232° Southwest 361 415 12,900 2,820 Climbing FAA TRACON SMA TRACON (SMA)
10:24AM 39.6033 -75.2964 202° Southwest 365 420 13,800 2,400 Climbing FAA TRACON SMA TRACON (SMA)
10:25AM 39.5689 -75.2989 183° South 376 433 14,500 1,980 Climbing FAA TRACON SMA TRACON (SMA)
10:25AM 39.4972 -75.3139 189° South 387 445 15,800 1,500 Climbing FAA TRACON SMA TRACON (SMA)
10:26AM 39.4656 -75.3197 188° South 386 444 16,000 300 Climbing FAA TRACON SMA TRACON (SMA)
10:26AM 39.4311 -75.3267 189° South 385 443 16,000  Level FAA TRACON SMA TRACON (SMA)
10:26AM 39.3911 -75.3336 188° South 385 443 16,000 120 Level FAA TRACON SMA TRACON (SMA)
10:27AM 39.3608 -75.3386 187° South 386 444 16,100 600 Climbing FAA TRACON SMA TRACON (SMA)
10:27AM 39.3244 -75.3447 187° South 387 445 16,400 1,020 Climbing FAA TRACON SMA TRACON (SMA)
10:27AM 39.2828 -75.3517 187° South 387 445 16,800 1,020 Climbing FAA TRACON SMA TRACON (SMA)
10:28AM 39.2525 -75.3556 186° South 385 443 17,100 1,380 Climbing FAA TRACON SMA TRACON (SMA)
10:29AM 39.0778 -75.3883 188° South 409 471 19,400 1,500 Climbing Washington Center
10:30AM 38.9611 -75.4075 187° South 419 482 20,900 1,440 Climbing Washington Center
10:31AM 38.8403 -75.4264 187° South 431 496 22,300 1,560 Climbing Washington Center
10:32AM 38.7172 -75.4481 188° South 437 503 24,100 1,500 Climbing Washington Center
10:33AM 38.5983 -75.4694 188° South 442 509 25,400 1,320 Climbing Washington Center
10:34AM 38.4714 -75.4908 188° South 447 514 26,800 1,080 Climbing Washington Center
10:35AM 38.3503 -75.5150 189° South 447 514 27,600 780 Climbing Washington Center
10:36AM 38.2378 -75.5572 196° South 452 520 28,400 900 Climbing Washington Center
10:37AM 38.1147 -75.6075 198° South 458 527 29,400 1,080 Climbing Washington Center
10:38AM 37.9958 -75.6656 201° Southwest 463 533 30,600 1,200 Climbing Washington Center
10:39AM 37.8747 -75.7181 199° South 458 527 31,900 1,140 Climbing Washington Center
10:40AM 37.7581 -75.7703 199° South 458 527 32,900 960 Climbing Washington Center
10:41AM 37.6369 -75.8172 197° South 458 527 33,900 540 Climbing Washington Center
10:42AM 37.5200 -75.8694 200° South 453 521 34,000  Climbing Washington Center
10:43AM 37.4053 -75.9317 203° Southwest 453 521 34,000  Level Washington Center
10:44AM 37.2881 -75.9939 203° Southwest 453 521 34,000  Level Washington Center
10:45AM 37.1711 -76.0558 203° Southwest 453 521 34,000  Level Washington Center
10:46AM 37.0561 -76.1175 203° Southwest 453 521 34,000  Level Washington Center
10:47AM 36.9369 -76.1739 201° Southwest 458 527 34,000 120 Level Washington Center
10:48AM 36.8219 -76.2381 204° Southwest 458 527 34,300 420 Climbing Washington Center
10:49AM 36.7067 -76.3044 205° Southwest 458 527 34,900 660 Climbing Washington Center
10:50AM 36.5894 -76.3706 204° Southwest 458 527 35,700 540 Climbing Washington Center
10:51AM 36.4744 -76.4339 204° Southwest 458 527 36,000 120 Climbing Washington Center
10:52AM 36.3614 -76.4947 203° Southwest 463 533 36,000  Level Washington Center
10:53AM 36.2461 -76.5578 204° Southwest 463 533 36,000  Level Washington Center
10:54AM 36.1183 -76.6256 203° Southwest 463 533 36,000 -60 Level Washington Center
10:55AM 36.0028 -76.6883 204° Southwest 463 533 35,900  Descending Washington Center
10:56AM 35.8875 -76.7508 204° Southwest 463 533 36,000  Climbing Washington Center
10:57AM 35.7742 -76.8131 204° Southwest 458 527 35,900 -60 Descending Washington Center
10:58AM 35.6589 -76.8703 202° Southwest 458 527 35,900  Level Washington Center
10:59AM 35.5475 -76.9350 205° Southwest 451 519 36,000  Climbing Washington Center
11:00AM 35.4342 -76.9942 203° Southwest 445 512 36,000  Level Washington Center
11:01AM 35.3167 -77.0558 203° Southwest 445 512 36,000  Level Washington Center
11:02AM 35.2033 -77.1172 204° Southwest 450 518 36,000  Level Washington Center
11:03AM 35.0878 -77.1786 203° Southwest 450 518 36,000  Level Washington Center
11:04AM 34.9722 -77.2397 203° Southwest 455 524 36,000  Level Washington Center
11:05AM 34.8586 -77.3006 204° Southwest 460 529 36,000  Level Washington Center
11:06AM 34.7556 -77.3592 205° Southwest 460 529 36,000  Level Washington Center
11:07AM 34.6378 -77.4172 202° Southwest 460 529 36,000  Level Washington Center
11:08AM 34.5181 -77.4622 197° South 460 529 36,000  Level Washington Center
11:09AM 34.3906 -77.4872 189° South 460 529 36,000  Level Washington Center
11:11AM 34.1458 -77.5283 188° South 465 535 36,000  Level Jacksonville Center
11:12AM 34.0194 -77.5486 188° South 465 535 36,000  Level Jacksonville Center
11:13AM 33.8806 -77.5722 188° South 468 539 36,000  Level Jacksonville Center
11:14AM 33.7503 -77.5975 189° South 478 550 36,000  Level Jacksonville Center
11:15AM 33.6322 -77.6169 188° South 484 557 36,000  Level Jacksonville Center
11:16AM 33.5019 -77.6422 189° South 484 557 36,000  Level Jacksonville Center
11:17AM 33.3692 -77.6625 187° South 484 557 36,000  Level Jacksonville Center
11:18AM 33.2367 -77.6878 189° South 484 557 36,000  Level Jacksonville Center
11:19AM 33.1061 -77.7103 188° South 484 557 36,000  Level Jacksonville Center
11:20AM 32.9756 -77.7300 187° South 484 557 36,000  Level Jacksonville Center
11:21AM 32.8428 -77.7525 188° South 484 557 36,000  Level Jacksonville Center
11:22AM 32.7122 -77.7772 189° South 479 551 36,000  Level Jacksonville Center
11:23AM 32.5858 -77.7967 187° South 479 551 36,000  Level Jacksonville Center
11:24AM 32.4550 -77.8164 187° South 479 551 36,000 -60 Level Jacksonville Center
11:25AM 32.3247 -77.8433 190° South 479 551 35,900  Descending Jacksonville Center
11:26AM 32.1914 -77.8506 183° South 484 557 36,000  Climbing Jacksonville Center
11:27AM 32.0553 -77.8411 177° South 479 551 36,000 -60 Level Jacksonville Center
11:28AM 31.9192 -77.8289 176° South 479 551 35,900  Descending Jacksonville Center
11:29AM 31.7814 -77.8242 178° South 489 563 36,000  Climbing Jacksonville Center
11:30AM 31.6433 -77.8172 178° South 489 563 36,000  Level Jacksonville Center
11:31AM 31.5050 -77.8075 177° South 502 578 36,000  Level Jacksonville Center
11:32AM 31.3650 -77.8006 178° South 502 578 36,000  Level Jacksonville Center
11:33AM 31.2247 -77.7936 178° South 502 578 36,000  Level Jacksonville Center
11:34AM 31.0867 -77.7842 177° South 502 578 36,000  Level Jacksonville Center
11:35AM 30.9467 -77.7772 178° South 502 578 36,000 -60 Level Jacksonville Center
11:36AM 30.8064 -77.7703 178° South 502 578 35,900 -60 Descending Jacksonville Center
11:37AM 30.6683 -77.7586 176° South 502 578 35,900  Level Jacksonville Center
11:39AM 30.3236 -77.7472 178° South 498 573 36,000  Climbing Miami Center
11:40AM 30.1797 -77.7389 177° South 504 580 36,000  Level Miami Center
11:41AM 30.0692 -77.7356 179° South 507 583 36,000  Level Miami Center
11:42AM 29.9003 -77.7247 177° South 512 589 36,000  Level Miami Center
11:43AM 29.7586 -77.7189 178° South 506 582 36,000  Level Miami Center
11:44AM 29.6189 -77.7106 177° South 512 589 36,000  Level Miami Center
11:45AM 29.4772 -77.7022 177° South 512 589 36,000  Level Miami Center
11:46AM 29.3375 -77.6989 179° South 512 589 36,000  Level Miami Center
11:47AM 29.1894 -77.6931 178° South 506 582 36,000  Level Miami Center
11:48AM 29.0558 -77.6847 177° South 501 577 36,000  Level Miami Center
11:49AM 28.9328 -77.6792 178° South 512 589 36,000 -60 Level Miami Center
11:50AM 28.7931 -77.6711 177° South 507 583 35,900  Descending Miami Center
11:51AM 28.6469 -77.6628 177° South 502 578 36,000  Climbing Miami Center
11:52AM 28.5092 -77.6547 177° South 496 571 36,000  Level Miami Center
11:53AM 28.3714 -77.6492 178° South 496 571 36,000  Level Miami Center
11:54AM 28.2339 -77.6339 174° South 496 571 36,000 -360 Level Miami Center
11:55AM 28.0939 -77.6331 180° South 496 571 35,300 -900 Descending Miami Center
11:56AM 27.9539 -77.6250 177° South 496 571 34,300 -660 Descending Miami Center
11:57AM 27.8142 -77.6147 176° South 496 571 34,000 -180 Descending Miami Center
11:58AM 27.6722 -77.6161 180° South 501 577 34,000  Level Miami Center
11:59AM 27.5303 -77.5989 174° South 506 582 34,000  Level Miami Center
12:00PM 27.3883 -77.5908 177° South 506 582 34,000  Level Miami Center
12:01PM 27.2525 -77.5783 175° South 506 582 34,000  Level Miami Center
12:02PM 27.1106 -77.5892 184° South 501 577 34,000 -420 Level Miami Center
12:03PM 26.9706 -77.5650 171° South 501 577 33,200 -1,740 Descending Miami Center
12:04PM 26.8308 -77.5572 177° South 501 577 30,600 -2,520 Descending Miami Center
12:05PM 26.6928 -77.5542 179° South 501 577 28,200 -2,400 Descending Miami Center
12:06PM 26.5614 -77.5417 175° South 491 565 25,900 -2,100 Descending Miami Center
12:07PM 26.4317 -77.5364 178° South 479 551 24,000 -1,020 Descending Miami Center
12:08PM 26.3064 -77.5286 177° South 467 537 23,900 -1,200 Descending Miami Center
12:09PM 26.1833 -77.5208 177° South 456 525 21,700 -2,160 Descending Miami Center
12:10PM 26.0619 -77.5133 177° South 451 519 19,600 -1,980 Descending Miami Center
12:11PM 25.9472 -77.5036 176° South 438 504 17,800 -1,920 Descending Miami Center
12:12PM 25.8386 -77.4961 176° South 414 476 15,800 -2,100 Descending Miami Center
12:13PM 25.7319 -77.4931 179° South 399 459 13,700 -1,800 Descending Miami Center
12:14PM 25.6381 -77.4903 178° South 368 423 12,200 -1,800 Descending Miami Center
12:15PM 25.5542 -77.5175 196° South 336 387 10,100 -2,100 Descending Miami Center
12:17PM 25.4303 -77.4717 162° South  Level FlightAware Approximate
12:24PM 25.0333 -77.4500 318° Northwest  Level FlightAware Approximate
12:25PM 25.0390 -77.4662 318° Northwest  Level Estimated
12:26PM 25.0390 -77.4662 318° Northwest  Level Estimated